Current Weather

Chicago O'Hare International

Chicago, Illinois (KORD)

Report from: Monday, June 27, 2022 6:51 AM CDT
Current time: Monday, June 27, 2022 7:14 AM CDT

Nearby weather
Weather history
Weather forecast

Temperature17.8°C (64.0°F)
Dew point7.8°C (46.0°F)
Winds 6 kts (3.1 m/s, 6.9 mph) Northwest (310°)
Visibility10 mi. (16.1 km)
Clouds Sky clear
Altimeter30.21 in.Hg (1023 mB)
Relative humidity52 %
Density altitude153 ft. (47 m)
Sea-level pressure102.3 kPa (1023 mB, 30.19 in.Hg)
Max temp last 6 hours18.3°C (64.9°F)
Min temp last 6 hours15.6°C (60.1°F)
Remarks System requires maintenance
Automated weather observing station with precipitation discriminator
Pressure rising more quickly
Flight conditions Visual Meteorological Conditions
Raw dataKORD 271151Z 31006KT 10SM CLR 18/08 A3021 RMK AO2 SLP225 T01780078 10183 20156 53015 $
An error has occurred. This application may no longer respond until reloaded. Reload 🗙